sensor_id;sensor_type;location;lat;lon;timestamp;pressure;altitude;pressure_sealevel;temperature;humidity
10310;BME280;5200;43.236;27.986;2022-07-23T00:01:20;100005.31;;;22.82;46.58
10310;BME280;5200;43.236;27.986;2022-07-23T00:03:47;100012.69;;;22.86;46.50
10310;BME280;5200;43.236;27.986;2022-07-23T00:06:15;100011.84;;;22.86;46.80
10310;BME280;5200;43.236;27.986;2022-07-23T00:08:42;99969.16;;;22.59;46.61
10310;BME280;5200;43.236;27.986;2022-07-23T00:11:10;100009.41;;;22.84;46.84
10310;BME280;5200;43.236;27.986;2022-07-23T00:13:37;99989.06;;;22.76;46.25
10310;BME280;5200;43.236;27.986;2022-07-23T00:16:05;99990.88;;;22.76;46.58
10310;BME280;5200;43.236;27.986;2022-07-23T00:18:32;100008.53;;;22.90;46.39
10310;BME280;5200;43.236;27.986;2022-07-23T00:20:59;99981.81;;;22.77;45.88
10310;BME280;5200;43.236;27.986;2022-07-23T00:23:26;99987.56;;;22.80;46.17
10310;BME280;5200;43.236;27.986;2022-07-23T00:25:54;99985.03;;;22.86;46.05
10310;BME280;5200;43.236;27.986;2022-07-23T00:28:23;100001.06;;;22.99;45.86
10310;BME280;5200;43.236;27.986;2022-07-23T00:30:50;99986.63;;;22.93;45.80
10310;BME280;5200;43.236;27.986;2022-07-23T00:33:18;99964.91;;;22.76;45.87
10310;BME280;5200;43.236;27.986;2022-07-23T00:35:45;100002.47;;;23.02;45.70
10310;BME280;5200;43.236;27.986;2022-07-23T00:38:12;99987.28;;;22.89;45.47
10310;BME280;5200;43.236;27.986;2022-07-23T00:40:39;99998.38;;;22.99;45.51
10310;BME280;5200;43.236;27.986;2022-07-23T00:43:06;100012.56;;;23.06;45.55
10310;BME280;5200;43.236;27.986;2022-07-23T00:45:35;100014.78;;;23.09;45.14
10310;BME280;5200;43.236;27.986;2022-07-23T00:48:02;99985.97;;;22.98;45.00
10310;BME280;5200;43.236;27.986;2022-07-23T00:50:29;100003.84;;;23.11;45.34
10310;BME280;5200;43.236;27.986;2022-07-23T00:52:57;100003.84;;;23.11;45.31
10310;BME280;5200;43.236;27.986;2022-07-23T00:55:24;99986.97;;;23.04;44.98
10310;BME280;5200;43.236;27.986;2022-07-23T00:57:53;100001.97;;;23.11;45.21
10310;BME280;5200;43.236;27.986;2022-07-23T01:00:20;99982.69;;;22.96;45.23
10310;BME280;5200;43.236;27.986;2022-07-23T01:02:49;99980.63;;;22.98;45.25
10310;BME280;5200;43.236;27.986;2022-07-23T01:05:16;99991.53;;;23.03;45.28
10310;BME280;5200;43.236;27.986;2022-07-23T01:07:47;99970.75;;;22.92;45.29
10310;BME280;5200;43.236;27.986;2022-07-23T01:10:14;99998.88;;;23.14;45.12
10310;BME280;5200;43.236;27.986;2022-07-23T01:13:01;99995.59;;;23.12;45.40
10310;BME280;5200;43.236;27.986;2022-07-23T01:15:28;99991.84;;;23.13;45.21
10310;BME280;5200;43.236;27.986;2022-07-23T01:17:57;99975.03;;;22.99;45.25
10310;BME280;5200;43.236;27.986;2022-07-23T01:20:25;99992.31;;;23.10;45.23
10310;BME280;5200;43.236;27.986;2022-07-23T01:22:53;99993.94;;;23.11;45.12
10310;BME280;5200;43.236;27.986;2022-07-23T01:25:21;99990.22;;;23.12;44.99
10310;BME280;5200;43.236;27.986;2022-07-23T01:27:48;99970.91;;;22.97;45.06
10310;BME280;5200;43.236;27.986;2022-07-23T01:30:16;99995.13;;;23.15;44.84
10310;BME280;5200;43.236;27.986;2022-07-23T01:32:43;99992.47;;;23.15;44.70
10310;BME280;5200;43.236;27.986;2022-07-23T01:35:10;99966.34;;;22.97;44.55
10310;BME280;5200;43.236;27.986;2022-07-23T01:37:37;99984.47;;;23.09;45.03
10310;BME280;5200;43.236;27.986;2022-07-23T01:40:06;99988.97;;;23.15;44.81
10310;BME280;5200;43.236;27.986;2022-07-23T01:42:34;99959.16;;;22.98;44.88
10310;BME280;5200;43.236;27.986;2022-07-23T01:45:02;99974.53;;;23.09;44.65
10310;BME280;5200;43.236;27.986;2022-07-23T01:47:30;99991.59;;;23.21;44.77
10310;BME280;5200;43.236;27.986;2022-07-23T01:49:57;99980.09;;;23.14;44.75
10310;BME280;5200;43.236;27.986;2022-07-23T01:52:24;99988.91;;;23.21;44.71
10310;BME280;5200;43.236;27.986;2022-07-23T01:54:51;99982.69;;;23.21;44.73
10310;BME280;5200;43.236;27.986;2022-07-23T01:57:19;99960.75;;;23.06;44.21
10310;BME280;5200;43.236;27.986;2022-07-23T01:59:46;99988.66;;;23.23;44.59
10310;BME280;5200;43.236;27.986;2022-07-23T02:02:13;99982.53;;;23.16;44.59
10310;BME280;5200;43.236;27.986;2022-07-23T02:04:40;99989.72;;;23.22;44.46
10310;BME280;5200;43.236;27.986;2022-07-23T02:07:07;99990.53;;;23.23;44.57
10310;BME280;5200;43.236;27.986;2022-07-23T02:09:34;99987.03;;;23.22;44.29
10310;BME280;5200;43.236;27.986;2022-07-23T02:12:01;99966.88;;;23.13;44.05
10310;BME280;5200;43.236;27.986;2022-07-23T02:14:29;99990.47;;;23.29;43.96
10310;BME280;5200;43.236;27.986;2022-07-23T02:16:56;99992.94;;;23.31;44.18
10310;BME280;5200;43.236;27.986;2022-07-23T02:19:23;99984.91;;;23.31;43.96
10310;BME280;5200;43.236;27.986;2022-07-23T02:21:50;99993.69;;;23.38;44.12
10310;BME280;5200;43.236;27.986;2022-07-23T02:24:17;99967.59;;;23.27;44.12
10310;BME280;5200;43.236;27.986;2022-07-23T02:26:44;99978.91;;;23.29;43.65
10310;BME280;5200;43.236;27.986;2022-07-23T02:29:11;99991.75;;;23.45;43.35
10310;BME280;5200;43.236;27.986;2022-07-23T02:31:40;99992.78;;;23.44;43.72
10310;BME280;5200;43.236;27.986;2022-07-23T02:34:07;99982.50;;;23.41;43.46
10310;BME280;5200;43.236;27.986;2022-07-23T02:36:37;99981.91;;;23.39;43.41
10310;BME280;5200;43.236;27.986;2022-07-23T02:39:04;99998.31;;;23.49;43.34
10310;BME280;5200;43.236;27.986;2022-07-23T02:41:31;99995.25;;;23.46;43.59
10310;BME280;5200;43.236;27.986;2022-07-23T02:43:58;99976.19;;;23.35;43.45
10310;BME280;5200;43.236;27.986;2022-07-23T02:46:25;99975.94;;;23.37;43.53
10310;BME280;5200;43.236;27.986;2022-07-23T02:48:54;99998.91;;;23.51;43.42
10310;BME280;5200;43.236;27.986;2022-07-23T02:51:21;99965.66;;;23.34;43.17
10310;BME280;5200;43.236;27.986;2022-07-23T02:53:48;99994.13;;;23.53;43.36
10310;BME280;5200;43.236;27.986;2022-07-23T02:56:15;100001.25;;;23.66;43.18
10310;BME280;5200;43.236;27.986;2022-07-23T02:58:42;99973.13;;;23.69;42.81
10310;BME280;5200;43.236;27.986;2022-07-23T03:01:09;100006.84;;;24.01;42.32
10310;BME280;5200;43.236;27.986;2022-07-23T03:03:36;100007.56;;;24.27;42.03
10310;BME280;5200;43.236;27.986;2022-07-23T03:06:05;100009.91;;;24.54;41.48
10310;BME280;5200;43.236;27.986;2022-07-23T03:08:32;99983.53;;;24.74;40.96
10310;BME280;5200;43.236;27.986;2022-07-23T03:10:59;100000.66;;;25.15;40.08
10310;BME280;5200;43.236;27.986;2022-07-23T03:13:26;100003.13;;;25.52;39.45
10310;BME280;5200;43.236;27.986;2022-07-23T03:15:53;99993.44;;;25.91;38.55
10310;BME280;5200;43.236;27.986;2022-07-23T03:18:20;100016.78;;;26.55;37.57
10310;BME280;5200;43.236;27.986;2022-07-23T03:20:47;99993.78;;;26.98;36.45
10310;BME280;5200;43.236;27.986;2022-07-23T03:23:16;100017.81;;;27.72;35.84
10310;BME280;5200;43.236;27.986;2022-07-23T03:25:42;100014.22;;;28.33;34.32
10310;BME280;5200;43.236;27.986;2022-07-23T03:28:09;100016.66;;;28.88;33.12
10310;BME280;5200;43.236;27.986;2022-07-23T03:30:36;100004.81;;;29.37;32.14
10310;BME280;5200;43.236;27.986;2022-07-23T03:33:03;100020.34;;;30.00;31.04
10310;BME280;5200;43.236;27.986;2022-07-23T03:35:30;100001.19;;;30.42;30.33
10310;BME280;5200;43.236;27.986;2022-07-23T03:37:57;100006.13;;;31.02;30.02
10310;BME280;5200;43.236;27.986;2022-07-23T03:40:26;99999.31;;;31.40;29.01
10310;BME280;5200;43.236;27.986;2022-07-23T03:42:52;100000.78;;;31.82;27.80
10310;BME280;5200;43.236;27.986;2022-07-23T03:45:19;100009.28;;;32.25;27.45
10310;BME280;5200;43.236;27.986;2022-07-23T03:47:46;99994.91;;;32.59;26.71
10310;BME280;5200;43.236;27.986;2022-07-23T03:50:13;100007.72;;;32.93;26.54
10310;BME280;5200;43.236;27.986;2022-07-23T03:52:40;100010.22;;;33.18;26.23
10310;BME280;5200;43.236;27.986;2022-07-23T03:55:07;100011.19;;;33.33;26.25
10310;BME280;5200;43.236;27.986;2022-07-23T03:57:36;100011.25;;;33.52;25.59
10310;BME280;5200;43.236;27.986;2022-07-23T04:00:05;100005.97;;;33.60;25.51
10310;BME280;5200;43.236;27.986;2022-07-23T04:02:32;100017.16;;;33.83;25.64
10310;BME280;5200;43.236;27.986;2022-07-23T04:04:59;100014.38;;;33.88;25.19
10310;BME280;5200;43.236;27.986;2022-07-23T04:07:26;99990.97;;;33.82;25.21
10310;BME280;5200;43.236;27.986;2022-07-23T04:09:53;99993.88;;;33.90;24.92
10310;BME280;5200;43.236;27.986;2022-07-23T04:12:20;99993.34;;;33.88;24.96
10310;BME280;5200;43.236;27.986;2022-07-23T04:14:49;100009.81;;;34.02;24.69
10310;BME280;5200;43.236;27.986;2022-07-23T04:17:16;100017.03;;;33.93;24.85
10310;BME280;5200;43.236;27.986;2022-07-23T04:19:43;100013.84;;;33.86;25.62
10310;BME280;5200;43.236;27.986;2022-07-23T04:22:10;100010.38;;;33.80;25.25
10310;BME280;5200;43.236;27.986;2022-07-23T04:24:38;100002.47;;;33.79;25.44
10310;BME280;5200;43.236;27.986;2022-07-23T04:27:05;100005.66;;;33.86;25.20
10310;BME280;5200;43.236;27.986;2022-07-23T04:29:32;99989.38;;;33.81;25.55
10310;BME280;5200;43.236;27.986;2022-07-23T04:32:01;100000.81;;;33.83;25.03
10310;BME280;5200;43.236;27.986;2022-07-23T04:34:28;100003.53;;;33.83;25.38
10310;BME280;5200;43.236;27.986;2022-07-23T04:36:55;100005.97;;;33.84;25.71
10310;BME280;5200;43.236;27.986;2022-07-23T04:39:22;100006.63;;;33.95;25.40
10310;BME280;5200;43.236;27.986;2022-07-23T04:41:49;100001.88;;;34.06;25.36
10310;BME280;5200;43.236;27.986;2022-07-23T04:44:16;100006.16;;;34.31;25.17
10310;BME280;5200;43.236;27.986;2022-07-23T04:46:43;100000.56;;;34.41;25.02
10310;BME280;5200;43.236;27.986;2022-07-23T04:49:11;100021.00;;;34.63;24.94
10310;BME280;5200;43.236;27.986;2022-07-23T04:51:38;100027.69;;;34.70;25.23
10310;BME280;5200;43.236;27.986;2022-07-23T04:54:05;100025.97;;;34.93;24.79
10310;BME280;5200;43.236;27.986;2022-07-23T04:56:32;100025.94;;;35.12;25.12
10310;BME280;5200;43.236;27.986;2022-07-23T04:58:59;100015.94;;;35.35;24.63
10310;BME280;5200;43.236;27.986;2022-07-23T05:01:26;100024.44;;;35.48;24.71
10310;BME280;5200;43.236;27.986;2022-07-23T05:03:53;100001.25;;;35.45;24.08
10310;BME280;5200;43.236;27.986;2022-07-23T05:06:22;100022.84;;;35.61;23.55
10310;BME280;5200;43.236;27.986;2022-07-23T05:08:49;100015.94;;;35.35;24.28
10310;BME280;5200;43.236;27.986;2022-07-23T05:11:23;100023.03;;;35.50;24.66
10310;BME280;5200;43.236;27.986;2022-07-23T05:14:00;100035.09;;;35.77;24.60
10310;BME280;5200;43.236;27.986;2022-07-23T05:16:47;100003.41;;;35.62;27.06
10310;BME280;5200;43.236;27.986;2022-07-23T05:19:14;100004.59;;;35.56;27.11
10310;BME280;5200;43.236;27.986;2022-07-23T05:21:43;100043.09;;;35.60;27.57
10310;BME280;5200;43.236;27.986;2022-07-23T05:24:10;100041.69;;;35.62;27.99
10310;BME280;5200;43.236;27.986;2022-07-23T05:26:37;100004.69;;;35.51;27.55
10310;BME280;5200;43.236;27.986;2022-07-23T05:29:05;100002.16;;;35.41;27.78
10310;BME280;5200;43.236;27.986;2022-07-23T05:31:32;100034.66;;;35.14;29.04
10310;BME280;5200;43.236;27.986;2022-07-23T05:34:01;100011.69;;;34.64;29.88
10310;BME280;5200;43.236;27.986;2022-07-23T05:36:28;100008.56;;;34.51;29.96
10310;BME280;5200;43.236;27.986;2022-07-23T05:38:56;100047.06;;;34.74;30.79
10310;BME280;5200;43.236;27.986;2022-07-23T05:41:26;100040.31;;;34.66;30.70
10310;BME280;5200;43.236;27.986;2022-07-23T05:43:53;100035.81;;;34.76;30.29
10310;BME280;5200;43.236;27.986;2022-07-23T05:46:20;100036.88;;;34.93;30.11
10310;BME280;5200;43.236;27.986;2022-07-23T05:48:47;100042.34;;;34.93;30.26
10310;BME280;5200;43.236;27.986;2022-07-23T05:51:19;100045.66;;;34.58;30.48
10310;BME280;5200;43.236;27.986;2022-07-23T05:53:46;100051.41;;;34.37;31.03
10310;BME280;5200;43.236;27.986;2022-07-23T05:56:15;100049.47;;;34.19;31.02
10310;BME280;5200;43.236;27.986;2022-07-23T05:58:42;100025.09;;;34.03;31.09
10310;BME280;5200;43.236;27.986;2022-07-23T06:01:09;100028.75;;;34.18;31.17
10310;BME280;5200;43.236;27.986;2022-07-23T06:03:37;100033.09;;;34.19;31.09
10310;BME280;5200;43.236;27.986;2022-07-23T06:06:04;100031.69;;;34.40;30.62
10310;BME280;5200;43.236;27.986;2022-07-23T06:08:32;100042.50;;;34.69;30.30
10310;BME280;5200;43.236;27.986;2022-07-23T06:10:59;100048.56;;;34.80;30.45
10310;BME280;5200;43.236;27.986;2022-07-23T06:13:28;100038.91;;;34.69;30.10
10310;BME280;5200;43.236;27.986;2022-07-23T06:15:55;100037.06;;;34.83;30.00
10310;BME280;5200;43.236;27.986;2022-07-23T06:18:22;100037.75;;;34.75;30.25
10310;BME280;5200;43.236;27.986;2022-07-23T06:20:49;100032.06;;;34.52;30.42
10310;BME280;5200;43.236;27.986;2022-07-23T06:23:16;100051.78;;;34.30;31.47
10310;BME280;5200;43.236;27.986;2022-07-23T06:25:43;100035.19;;;34.27;31.28
10310;BME280;5200;43.236;27.986;2022-07-23T06:28:10;100052.72;;;34.59;31.24
10310;BME280;5200;43.236;27.986;2022-07-23T06:30:39;100049.13;;;34.63;31.22
10310;BME280;5200;43.236;27.986;2022-07-23T06:33:06;100039.34;;;34.38;30.63
10310;BME280;5200;43.236;27.986;2022-07-23T06:35:32;100049.13;;;34.01;30.88
10310;BME280;5200;43.236;27.986;2022-07-23T06:38:00;100049.56;;;33.89;31.75
10310;BME280;5200;43.236;27.986;2022-07-23T06:40:27;100056.34;;;34.16;31.70
10310;BME280;5200;43.236;27.986;2022-07-23T06:42:54;100041.66;;;34.31;30.98
10310;BME280;5200;43.236;27.986;2022-07-23T06:45:21;100054.50;;;34.49;30.90
10310;BME280;5200;43.236;27.986;2022-07-23T06:47:50;100032.97;;;34.48;30.48
10310;BME280;5200;43.236;27.986;2022-07-23T06:50:17;100053.03;;;34.76;30.10
10310;BME280;5200;43.236;27.986;2022-07-23T06:52:44;100056.34;;;35.06;29.56
10310;BME280;5200;43.236;27.986;2022-07-23T06:55:11;100052.97;;;35.14;29.12
10310;BME280;5200;43.236;27.986;2022-07-23T06:57:38;100044.47;;;35.15;29.38
10310;BME280;5200;43.236;27.986;2022-07-23T07:00:06;100045.28;;;35.16;28.77
10310;BME280;5200;43.236;27.986;2022-07-23T07:02:33;100067.69;;;35.46;28.65
10310;BME280;5200;43.236;27.986;2022-07-23T07:05:02;100050.78;;;35.44;27.69
10310;BME280;5200;43.236;27.986;2022-07-23T07:07:29;100054.53;;;35.48;27.92
10310;BME280;5200;43.236;27.986;2022-07-23T07:09:56;100062.38;;;35.68;28.18
10310;BME280;5200;43.236;27.986;2022-07-23T07:12:23;100060.97;;;35.85;27.97
10310;BME280;5200;43.236;27.986;2022-07-23T07:14:50;100063.06;;;35.88;27.95
10310;BME280;5200;43.236;27.986;2022-07-23T07:17:18;100044.72;;;35.88;27.95
10310;BME280;5200;43.236;27.986;2022-07-23T07:19:45;100049.16;;;35.98;27.59
10310;BME280;5200;43.236;27.986;2022-07-23T07:22:14;100045.50;;;36.16;27.40
10310;BME280;5200;43.236;27.986;2022-07-23T07:24:41;100068.59;;;36.38;26.90
10310;BME280;5200;43.236;27.986;2022-07-23T07:27:08;100063.72;;;36.35;26.77
10310;BME280;5200;43.236;27.986;2022-07-23T07:29:35;100065.53;;;36.39;27.10
10310;BME280;5200;43.236;27.986;2022-07-23T07:32:02;100053.28;;;36.37;26.95
10310;BME280;5200;43.236;27.986;2022-07-23T07:34:29;100050.91;;;36.44;27.21
10310;BME280;5200;43.236;27.986;2022-07-23T07:36:56;100063.56;;;36.54;26.99
10310;BME280;5200;43.236;27.986;2022-07-23T07:39:24;100069.97;;;36.49;27.67
10310;BME280;5200;43.236;27.986;2022-07-23T07:41:51;100061.63;;;36.54;27.66
10310;BME280;5200;43.236;27.986;2022-07-23T07:44:18;100081.44;;;36.51;27.83
10310;BME280;5200;43.236;27.986;2022-07-23T07:46:45;100058.25;;;36.35;28.10
10310;BME280;5200;43.236;27.986;2022-07-23T07:49:12;100054.88;;;36.38;28.46
10310;BME280;5200;43.236;27.986;2022-07-23T07:51:39;100068.88;;;36.50;27.97
10310;BME280;5200;43.236;27.986;2022-07-23T07:54:06;100061.63;;;36.54;27.93
10310;BME280;5200;43.236;27.986;2022-07-23T07:56:34;100043.13;;;35.73;28.00
10310;BME280;5200;43.236;27.986;2022-07-23T07:59:01;100067.66;;;34.99;28.69
10310;BME280;5200;43.236;27.986;2022-07-23T08:01:28;100061.97;;;34.25;29.97
10310;BME280;5200;43.236;27.986;2022-07-23T08:03:55;100056.72;;;34.04;31.10
10310;BME280;5200;43.236;27.986;2022-07-23T08:06:22;100062.69;;;34.12;31.08
10310;BME280;5200;43.236;27.986;2022-07-23T08:08:49;100053.09;;;33.90;30.96
10310;BME280;5200;43.236;27.986;2022-07-23T08:11:16;100055.38;;;33.59;31.90
10310;BME280;5200;43.236;27.986;2022-07-23T08:13:44;100073.88;;;33.86;32.12
10310;BME280;5200;43.236;27.986;2022-07-23T08:16:11;100080.25;;;34.00;30.97
10310;BME280;5200;43.236;27.986;2022-07-23T08:18:38;100083.28;;;34.23;31.54
10310;BME280;5200;43.236;27.986;2022-07-23T08:21:05;100068.50;;;34.24;31.33
10310;BME280;5200;43.236;27.986;2022-07-23T08:23:32;100077.00;;;34.22;30.58
10310;BME280;5200;43.236;27.986;2022-07-23T08:26:00;100057.81;;;34.27;32.09
10310;BME280;5200;43.236;27.986;2022-07-23T08:28:27;100075.31;;;34.45;32.31
10310;BME280;5200;43.236;27.986;2022-07-23T08:30:55;100064.00;;;34.33;31.28
10310;BME280;5200;43.236;27.986;2022-07-23T08:33:22;100078.88;;;33.79;32.00
10310;BME280;5200;43.236;27.986;2022-07-23T08:35:50;100080.25;;;33.52;33.60
10310;BME280;5200;43.236;27.986;2022-07-23T08:38:19;100076.19;;;33.50;32.39
10310;BME280;5200;43.236;27.986;2022-07-23T08:40:48;100082.78;;;33.73;32.63
10310;BME280;5200;43.236;27.986;2022-07-23T08:43:17;100059.97;;;33.63;31.75
10310;BME280;5200;43.236;27.986;2022-07-23T08:45:46;100060.47;;;33.65;31.40
10310;BME280;5200;43.236;27.986;2022-07-23T08:48:16;100077.94;;;33.64;31.27
10310;BME280;5200;43.236;27.986;2022-07-23T08:50:45;100082.13;;;33.57;31.53
10310;BME280;5200;43.236;27.986;2022-07-23T08:53:12;100080.97;;;33.34;31.41
10310;BME280;5200;43.236;27.986;2022-07-23T08:55:43;100067.81;;;33.12;31.70
10310;BME280;5200;43.236;27.986;2022-07-23T08:58:10;100066.84;;;33.26;32.51
10310;BME280;5200;43.236;27.986;2022-07-23T09:00:37;100079.44;;;33.22;31.46
10310;BME280;5200;43.236;27.986;2022-07-23T09:03:04;100076.56;;;33.38;31.95
10310;BME280;5200;43.236;27.986;2022-07-23T09:05:32;100083.38;;;33.06;31.47
10310;BME280;5200;43.236;27.986;2022-07-23T09:08:07;100085.00;;;33.02;32.00
10310;BME280;5200;43.236;27.986;2022-07-23T09:10:49;100062.78;;;32.90;31.80
10310;BME280;5200;43.236;27.986;2022-07-23T09:13:25;100072.06;;;32.89;31.03
10310;BME280;5200;43.236;27.986;2022-07-23T09:15:53;100069.03;;;32.90;31.73
10310;BME280;5200;43.236;27.986;2022-07-23T09:18:32;100091.03;;;33.04;31.00
10310;BME280;5200;43.236;27.986;2022-07-23T09:21:08;100104.09;;;33.07;31.33
10310;BME280;5200;43.236;27.986;2022-07-23T09:23:40;100094.44;;;32.85;31.34
10310;BME280;5200;43.236;27.986;2022-07-23T09:26:31;100086.94;;;32.67;32.11
10310;BME280;5200;43.236;27.986;2022-07-23T09:29:01;100098.50;;;32.83;31.45
10310;BME280;5200;43.236;27.986;2022-07-23T09:31:33;100086.34;;;32.70;31.24
10310;BME280;5200;43.236;27.986;2022-07-23T09:34:12;100100.09;;;32.44;31.75
10310;BME280;5200;43.236;27.986;2022-07-23T09:36:42;100107.94;;;32.01;32.61
10310;BME280;5200;43.236;27.986;2022-07-23T09:39:10;100117.75;;;31.77;33.21
10310;BME280;5200;43.236;27.986;2022-07-23T09:41:40;100108.53;;;31.68;33.22
10310;BME280;5200;43.236;27.986;2022-07-23T09:44:13;100104.72;;;31.74;33.20
10310;BME280;5200;43.236;27.986;2022-07-23T09:46:41;100110.38;;;31.93;33.72
10310;BME280;5200;43.236;27.986;2022-07-23T09:49:12;100092.72;;;31.75;33.30
10310;BME280;5200;43.236;27.986;2022-07-23T09:51:49;100093.88;;;31.38;34.18
10310;BME280;5200;43.236;27.986;2022-07-23T09:54:25;100090.91;;;31.14;35.61
10310;BME280;5200;43.236;27.986;2022-07-23T09:56:54;100103.94;;;31.22;36.08
10310;BME280;5200;43.236;27.986;2022-07-23T09:59:24;100081.38;;;31.06;36.29
10310;BME280;5200;43.236;27.986;2022-07-23T10:01:53;100090.91;;;30.93;36.34
10310;BME280;5200;43.236;27.986;2022-07-23T10:04:23;100103.81;;;30.45;38.35
10310;BME280;5200;43.236;27.986;2022-07-23T10:06:54;100089.72;;;29.90;40.90
10310;BME280;5200;43.236;27.986;2022-07-23T10:09:24;100108.34;;;29.71;42.66
10310;BME280;5200;43.236;27.986;2022-07-23T10:11:54;100100.69;;;29.63;43.82
10310;BME280;5200;43.236;27.986;2022-07-23T10:14:23;100094.41;;;29.63;43.58
10310;BME280;5200;43.236;27.986;2022-07-23T10:16:51;100085.69;;;29.56;45.60
10310;BME280;5200;43.236;27.986;2022-07-23T10:19:18;100113.03;;;29.86;44.96
10310;BME280;5200;43.236;27.986;2022-07-23T10:21:47;100111.94;;;29.82;46.99
10310;BME280;5200;43.236;27.986;2022-07-23T10:24:27;100095.59;;;29.72;47.46
10310;BME280;5200;43.236;27.986;2022-07-23T10:27:09;100109.94;;;29.67;47.50
10310;BME280;5200;43.236;27.986;2022-07-23T10:29:46;100105.94;;;29.75;47.27
10310;BME280;5200;43.236;27.986;2022-07-23T10:32:26;100094.66;;;29.99;47.06
10310;BME280;5200;43.236;27.986;2022-07-23T10:35:07;100099.81;;;30.00;48.33
10310;BME280;5200;43.236;27.986;2022-07-23T10:37:40;100089.72;;;29.85;46.56
10310;BME280;5200;43.236;27.986;2022-07-23T10:40:15;100085.28;;;29.69;45.56
10310;BME280;5200;43.236;27.986;2022-07-23T10:42:44;100080.06;;;29.25;47.20
10310;BME280;5200;43.236;27.986;2022-07-23T10:45:31;100081.59;;;29.11;49.34
10310;BME280;5200;43.236;27.986;2022-07-23T10:48:13;100098.19;;;28.92;50.67
10310;BME280;5200;43.236;27.986;2022-07-23T10:50:41;100091.34;;;28.57;52.60
10310;BME280;5200;43.236;27.986;2022-07-23T10:53:11;100075.44;;;28.39;51.22
10310;BME280;5200;43.236;27.986;2022-07-23T10:55:43;100087.63;;;28.63;49.98
10310;BME280;5200;43.236;27.986;2022-07-23T10:58:10;100068.84;;;28.30;51.82
10310;BME280;5200;43.236;27.986;2022-07-23T11:00:37;100093.00;;;28.58;51.58
10310;BME280;5200;43.236;27.986;2022-07-23T11:03:05;100080.31;;;28.64;50.78
10310;BME280;5200;43.236;27.986;2022-07-23T11:05:52;100100.72;;;29.04;49.10
10310;BME280;5200;43.236;27.986;2022-07-23T11:08:20;100095.38;;;29.41;47.74
10310;BME280;5200;43.236;27.986;2022-07-23T11:10:51;100086.81;;;29.60;46.82
10310;BME280;5200;43.236;27.986;2022-07-23T11:13:35;100096.75;;;29.86;45.03
10310;BME280;5200;43.236;27.986;2022-07-23T11:16:08;100074.44;;;29.32;46.49
10310;BME280;5200;43.236;27.986;2022-07-23T11:19:07;100094.59;;;29.14;48.41
10310;BME280;5200;43.236;27.986;2022-07-23T11:21:52;100079.25;;;29.24;48.30
10310;BME280;5200;43.236;27.986;2022-07-23T11:24:20;100067.47;;;29.08;48.94
10310;BME280;5200;43.236;27.986;2022-07-23T11:27:00;100074.06;;;29.18;49.97
10310;BME280;5200;43.236;27.986;2022-07-23T11:29:44;100087.56;;;29.13;49.54
10310;BME280;5200;43.236;27.986;2022-07-23T11:32:29;100071.66;;;28.94;48.61
10310;BME280;5200;43.236;27.986;2022-07-23T11:34:56;100063.88;;;28.71;51.27
10310;BME280;5200;43.236;27.986;2022-07-23T11:37:34;100068.16;;;28.66;49.18
10310;BME280;5200;43.236;27.986;2022-07-23T11:40:04;100077.41;;;28.71;49.21
10310;BME280;5200;43.236;27.986;2022-07-23T11:42:36;100073.69;;;28.50;51.66
10310;BME280;5200;43.236;27.986;2022-07-23T11:45:04;100077.38;;;28.65;52.04
10310;BME280;5200;43.236;27.986;2022-07-23T11:47:31;100080.72;;;28.78;51.65
10310;BME280;5200;43.236;27.986;2022-07-23T11:50:00;100070.25;;;28.86;50.46
10310;BME280;5200;43.236;27.986;2022-07-23T11:52:28;100059.34;;;29.08;51.06
10310;BME280;5200;43.236;27.986;2022-07-23T11:54:58;100079.09;;;29.41;50.01
10310;BME280;5200;43.236;27.986;2022-07-23T11:57:26;100078.50;;;29.34;46.72
10310;BME280;5200;43.236;27.986;2022-07-23T11:59:57;100085.28;;;29.04;46.44
10310;BME280;5200;43.236;27.986;2022-07-23T12:02:24;100087.06;;;28.88;48.05
10310;BME280;5200;43.236;27.986;2022-07-23T12:04:52;100075.41;;;28.88;46.59
10310;BME280;5200;43.236;27.986;2022-07-23T12:07:27;100077.66;;;28.96;46.62
10310;BME280;5200;43.236;27.986;2022-07-23T12:09:55;100076.56;;;28.97;47.61
10310;BME280;5200;43.236;27.986;2022-07-23T12:12:23;100084.38;;;29.21;45.32
10310;BME280;5200;43.236;27.986;2022-07-23T12:14:51;100074.94;;;29.23;45.87
10310;BME280;5200;43.236;27.986;2022-07-23T12:17:21;100083.66;;;29.03;45.85
10310;BME280;5200;43.236;27.986;2022-07-23T12:19:54;100087.19;;;29.04;45.27
10310;BME280;5200;43.236;27.986;2022-07-23T12:22:21;100081.03;;;29.08;46.21
10310;BME280;5200;43.236;27.986;2022-07-23T12:24:53;100053.69;;;28.83;46.30
10310;BME280;5200;43.236;27.986;2022-07-23T12:27:21;100067.84;;;28.90;47.20
10310;BME280;5200;43.236;27.986;2022-07-23T12:29:49;100080.91;;;28.98;46.59
10310;BME280;5200;43.236;27.986;2022-07-23T12:32:22;100070.53;;;28.90;46.41
10310;BME280;5200;43.236;27.986;2022-07-23T12:34:51;100067.66;;;28.70;43.26
10310;BME280;5200;43.236;27.986;2022-07-23T12:37:30;100066.63;;;28.76;44.48
10310;BME280;5200;43.236;27.986;2022-07-23T12:39:57;100065.00;;;28.75;46.44
10310;BME280;5200;43.236;27.986;2022-07-23T12:42:24;100063.84;;;28.65;45.21
10310;BME280;5200;43.236;27.986;2022-07-23T12:45:06;100070.22;;;28.81;45.83
10310;BME280;5200;43.236;27.986;2022-07-23T12:47:53;100075.88;;;28.80;42.34
10310;BME280;5200;43.236;27.986;2022-07-23T12:50:43;100062.53;;;28.73;43.84
10310;BME280;5200;43.236;27.986;2022-07-23T12:53:14;100064.44;;;28.73;43.78
10310;BME280;5200;43.236;27.986;2022-07-23T12:55:42;100072.22;;;28.42;44.55
10310;BME280;5200;43.236;27.986;2022-07-23T12:58:14;100070.47;;;28.31;42.57
10310;BME280;5200;43.236;27.986;2022-07-23T13:01:02;100061.06;;;28.11;43.73
10310;BME280;5200;43.236;27.986;2022-07-23T13:03:34;100066.91;;;28.25;46.56